Time;durP1;ratioP1;P1;durP2;ratioP2;P2;SDS_P1;SDS_P2;PMS_P1;PMS_P2;Temp;Humidity;BMP_temperature;BMP_pressure;BME280_temperature;BME280_humidity;BME280_pressure;Samples;Min_cycle;Max_cycle;Signal;HPM_P1;HPM_P2
2024/01/22 00:02:22;;;;;;;238.40;10.20;;;;;;;19.74;50.94;99879.72;7298030;19;130400;-38
2024/01/22 00:04:48;;;;;;;229.20;10.00;;;;;;;19.68;50.41;99875.00;7295582;19;130121;-42
2024/01/22 00:07:13;;;;;;;135.15;6.07;;;;;;;19.65;51.01;99880.47;7293912;19;130057;-39
2024/01/22 00:09:38;;;;;;;182.75;7.97;;;;;;;19.64;50.66;99878.78;7294696;19;129688;-40
2024/01/22 00:12:04;;;;;;;223.90;9.57;;;;;;;19.63;50.93;99871.91;7295293;19;129114;-43
2024/01/22 00:14:29;;;;;;;137.80;6.22;;;;;;;19.62;50.50;99876.28;7297225;19;132256;-41
2024/01/22 00:16:54;;;;;;;225.77;9.73;;;;;;;19.95;50.81;99862.38;7295159;19;131112;-40
2024/01/22 00:19:20;;;;;;;190.30;8.50;;;;;;;20.28;49.36;99865.72;7293727;19;129557;-40
2024/01/22 00:21:45;;;;;;;209.07;8.65;;;;;;;20.37;49.63;99866.78;7296203;19;129195;-41
2024/01/22 00:24:11;;;;;;;294.92;12.77;;;;;;;20.36;49.11;99859.91;7292117;19;129145;-40
2024/01/22 00:26:36;;;;;;;180.30;7.75;;;;;;;20.44;49.32;99860.91;7294198;19;131822;-43
2024/01/22 00:29:01;;;;;;;223.02;9.35;;;;;;;20.47;49.11;99858.06;7295104;19;131191;-41
2024/01/22 00:31:27;;;;;;;219.88;9.27;;;;;;;20.40;49.89;99849.06;7293788;19;131180;-38
2024/01/22 00:33:52;;;;;;;203.68;9.18;;;;;;;20.34;50.16;99848.75;7294026;19;130261;-37
2024/01/22 00:36:17;;;;;;;179.23;8.00;;;;;;;20.32;50.27;99837.59;7292280;19;130545;-43
2024/01/22 00:38:43;;;;;;;240.68;9.95;;;;;;;20.32;49.73;99840.22;7292873;19;129265;-43
2024/01/22 00:41:09;;;;;;;176.50;8.15;;;;;;;20.19;50.64;99829.09;7296326;19;131633;-41
2024/01/22 00:43:36;;;;;;;218.60;9.00;;;;;;;20.09;50.72;99808.13;7293460;19;130344;-39
2024/01/22 00:46:02;;;;;;;201.07;9.38;;;;;;;20.11;50.42;99814.06;7293103;19;131958;-40
2024/01/22 00:48:27;;;;;;;236.82;10.18;;;;;;;20.07;50.91;99802.19;7293094;19;129584;-38
2024/01/22 00:50:53;;;;;;;233.27;10.23;;;;;;;19.92;50.74;99789.53;7291973;19;129747;-43
2024/01/22 00:53:18;;;;;;;189.18;8.25;;;;;;;19.80;51.64;99799.19;7294426;19;130937;-39
2024/01/22 00:55:44;;;;;;;130.77;5.97;;;;;;;19.65;51.25;99792.59;7293197;19;130767;-46
2024/01/22 00:58:09;;;;;;;310.85;13.32;;;;;;;19.59;51.33;99784.44;7292633;19;129343;-44
2024/01/22 01:00:35;;;;;;;184.32;8.15;;;;;;;19.54;51.02;99778.75;7291218;19;129258;-37
2024/01/22 01:03:03;;;;;;;214.38;9.25;;;;;;;19.53;51.55;99777.94;7291778;19;131575;-42
2024/01/22 01:05:28;;;;;;;172.23;7.95;;;;;;;19.51;51.20;99768.56;7293178;19;131172;-37
2024/01/22 01:07:54;;;;;;;246.20;10.40;;;;;;;19.53;51.47;99764.06;7293022;19;129684;-39
2024/01/22 01:10:19;;;;;;;230.00;9.95;;;;;;;19.54;51.04;99758.72;7292389;19;129686;-41
2024/01/22 01:12:45;;;;;;;163.77;6.97;;;;;;;19.48;50.67;99742.75;7292532;19;130766;-42
2024/01/22 01:15:10;;;;;;;174.13;7.85;;;;;;;19.71;50.94;99755.59;7294451;19;131220;-40
2024/01/22 01:17:36;;;;;;;226.02;9.82;;;;;;;20.14;49.81;99763.38;7294249;19;129387;-42
2024/01/22 01:20:03;;;;;;;242.60;10.57;;;;;;;20.22;49.17;99740.09;7290650;19;129991;-41
2024/01/22 01:22:29;;;;;;;166.93;7.28;;;;;;;20.42;48.98;99757.56;7291926;19;130384;-44
2024/01/22 01:24:55;;;;;;;191.27;8.37;;;;;;;20.39;49.40;99750.81;7292995;19;130897;-38
2024/01/22 01:27:20;;;;;;;233.70;10.07;;;;;;;20.38;49.18;99749.13;7293818;19;129717;-39
2024/01/22 01:29:45;;;;;;;135.68;6.25;;;;;;;20.39;49.66;99752.59;7293536;19;129599;-42
2024/01/22 01:32:11;;;;;;;182.68;8.05;;;;;;;20.34;49.77;99755.59;7291520;19;129426;-44
2024/01/22 01:34:36;;;;;;;214.00;8.77;;;;;;;20.29;50.26;99751.69;7293192;19;130642;-41
2024/01/22 01:37:02;;;;;;;216.82;9.40;;;;;;;20.04;49.81;99718.09;7293476;19;131200;-38
2024/01/22 01:39:27;;;;;;;175.52;7.60;;;;;;;20.26;49.86;99733.69;7292930;19;131011;-39
2024/01/22 01:41:52;;;;;;;136.98;6.90;;;;;;;20.01;50.45;99710.53;7293018;19;131553;-43
2024/01/22 01:44:18;;;;;;;259.00;10.75;;;;;;;20.14;50.06;99726.81;7288022;19;129897;-41
2024/01/22 01:46:44;;;;;;;174.77;7.60;;;;;;;20.04;50.35;99724.16;7292954;19;129435;-40
2024/01/22 01:49:09;;;;;;;183.77;7.88;;;;;;;20.08;50.75;99719.50;7289825;19;129873;-39
2024/01/22 01:51:37;;;;;;;200.32;8.48;;;;;;;20.05;50.86;99723.19;7288493;19;130189;-39
2024/01/22 01:54:05;;;;;;;258.77;11.18;;;;;;;19.58;51.12;99687.13;7290515;19;130441;-42
2024/01/22 01:56:31;;;;;;;202.25;8.43;;;;;;;19.63;51.26;99697.19;7289883;19;129535;-45
2024/01/22 01:58:57;;;;;;;201.07;8.48;;;;;;;19.58;51.99;99701.94;7288384;19;129801;-41
2024/01/22 02:01:22;;;;;;;201.10;8.65;;;;;;;19.53;51.97;99696.28;7291397;19;130433;-37
2024/01/22 02:03:48;;;;;;;256.00;10.73;;;;;;;19.57;51.63;99682.84;7292437;19;130723;-39
2024/01/22 02:06:13;;;;;;;135.30;6.18;;;;;;;19.58;51.14;99702.78;7292533;19;129667;-45
2024/01/22 02:08:38;;;;;;;113.90;5.13;;;;;;;19.51;51.51;99675.53;7291892;19;129748;-42
2024/01/22 02:11:04;;;;;;;210.85;9.18;;;;;;;19.60;51.07;99680.03;7290841;19;130068;-38
2024/01/22 02:13:30;;;;;;;232.73;9.57;;;;;;;19.58;51.21;99665.44;7292603;19;130606;-41
2024/01/22 02:15:55;;;;;;;182.27;7.97;;;;;;;19.70;50.79;99669.66;7290051;19;130991;-44
2024/01/22 02:18:21;;;;;;;173.98;7.38;;;;;;;19.76;50.94;99669.16;7291844;19;130965;-40
2024/01/22 02:20:46;;;;;;;183.32;7.75;;;;;;;19.85;50.69;99678.84;7289185;19;130396;-39
2024/01/22 02:23:12;;;;;;;220.43;8.93;;;;;;;19.92;51.09;99664.31;7291421;19;130327;-39
2024/01/22 02:25:37;;;;;;;199.80;8.30;;;;;;;19.96;50.29;99650.91;7291029;19;129415;-39
2024/01/22 02:28:03;;;;;;;149.98;6.95;;;;;;;19.95;50.64;99653.66;7290339;19;130068;-41
2024/01/22 02:30:28;;;;;;;198.00;8.65;;;;;;;20.00;50.68;99635.81;7288015;19;131934;-43
2024/01/22 02:32:53;;;;;;;250.38;10.30;;;;;;;19.96;50.99;99637.03;7290834;19;130862;-41
2024/01/22 02:35:20;;;;;;;192.60;8.20;;;;;;;19.94;50.68;99626.72;7291288;19;129539;-37
2024/01/22 02:37:45;;;;;;;170.95;7.50;;;;;;;20.02;50.91;99639.09;7289679;19;129628;-44
2024/01/22 02:40:11;;;;;;;98.63;4.50;;;;;;;19.86;50.61;99623.91;7288180;19;130066;-42
2024/01/22 02:42:36;;;;;;;181.85;7.80;;;;;;;19.95;51.16;99632.78;7291313;19;130357;-42
2024/01/22 02:45:03;;;;;;;227.98;9.85;;;;;;;19.94;51.05;99636.31;7292003;19;132273;-41
2024/01/22 02:47:29;;;;;;;;;;;;;;;19.74;50.96;99593.63;7289797;19;129465;-41
2024/01/22 02:49:54;;;;;;;270.20;11.05;;;;;;;19.70;51.57;99615.69;7288942;19;129200;-42
2024/01/22 02:52:19;;;;;;;192.38;8.15;;;;;;;19.59;51.96;99617.53;7291804;19;131016;-41
2024/01/22 02:54:44;;;;;;;175.85;7.43;;;;;;;19.55;51.80;99616.16;7291090;19;131132;-39
2024/01/22 02:57:11;;;;;;;188.55;7.97;;;;;;;19.51;51.67;99610.34;7287073;19;129808;-45
2024/01/22 02:59:37;;;;;;;187.47;7.80;;;;;;;19.51;52.17;99607.75;7287172;19;131680;-41
2024/01/22 03:02:03;;;;;;;140.20;6.50;;;;;;;19.36;51.32;99573.34;7288474;19;130706;-40
2024/01/22 03:04:28;;;;;;;183.10;7.47;;;;;;;19.54;51.38;99596.22;7288686;19;129139;-45
2024/01/22 03:06:54;;;;;;;210.98;9.02;;;;;;;19.60;51.64;99591.34;7287966;19;129273;-44
2024/01/22 03:09:19;;;;;;;241.38;9.73;;;;;;;19.62;51.27;99596.44;7286872;19;130421;-41
2024/01/22 03:11:45;;;;;;;201.98;8.57;;;;;;;19.51;51.16;99575.63;7294304;19;131591;-42
2024/01/22 03:14:10;;;;;;;141.60;6.22;;;;;;;19.62;51.21;99594.63;7296039;19;131405;-38
2024/01/22 03:16:36;;;;;;;161.32;6.97;;;;;;;19.45;51.70;99556.13;7296544;19;129818;-43
2024/01/22 03:19:01;;;;;;;251.25;10.75;;;;;;;19.61;51.18;99577.34;7295039;19;131170;-47
2024/01/22 03:21:26;;;;;;;188.25;7.97;;;;;;;19.66;51.85;99582.19;7297319;19;131933;-41
2024/01/22 03:23:52;;;;;;;227.40;9.48;;;;;;;19.70;51.68;99578.38;7293757;19;130420;-39
2024/01/22 03:26:19;;;;;;;150.98;6.40;;;;;;;19.71;51.10;99573.03;7294357;19;129122;-41
2024/01/22 03:28:44;;;;;;;203.05;8.45;;;;;;;19.81;51.55;99578.28;7296359;19;129999;-43
2024/01/22 03:31:26;;;;;;;154.70;6.40;;;;;;;19.76;51.57;99572.63;7295890;19;130305;-41
2024/01/22 03:33:55;;;;;;;138.65;6.15;;;;;;;19.78;51.38;99570.72;7297386;19;130311;-42
2024/01/22 03:36:22;;;;;;;159.85;6.78;;;;;;;19.87;50.92;99565.56;7296933;19;128992;-42
2024/01/22 03:38:50;;;;;;;136.02;5.68;;;;;;;19.86;51.29;99563.06;7293851;19;130821;-41
2024/01/22 03:41:15;;;;;;;215.57;9.10;;;;;;;19.92;51.26;99578.22;7295096;19;131359;-42
2024/01/22 03:43:42;;;;;;;198.52;8.25;;;;;;;19.91;51.17;99572.19;7297347;19;129717;-40
2024/01/22 03:46:08;;;;;;;;;;;;;;;19.73;50.71;99539.00;7295022;19;129402;-45
2024/01/22 03:48:33;;;;;;;245.50;9.95;;;;;;;19.90;50.83;99572.31;7295616;19;130141;-41
2024/01/22 03:50:59;;;;;;;203.82;8.45;;;;;;;19.67;51.08;99565.59;7296328;19;133210;-40
2024/01/22 03:53:24;;;;;;;188.27;8.10;;;;;;;19.53;51.79;99552.84;7296202;19;130777;-40
2024/01/22 03:55:49;;;;;;;119.25;5.22;;;;;;;19.52;51.44;99548.59;7296363;19;129078;-39
2024/01/22 03:58:15;;;;;;;212.93;8.70;;;;;;;19.50;51.64;99532.25;7295480;19;130592;-42
2024/01/22 04:00:40;;;;;;;140.93;6.10;;;;;;;19.30;51.42;99500.84;7293613;19;129910;-43
2024/01/22 04:03:05;;;;;;;205.18;8.85;;;;;;;19.48;52.14;99535.81;7295129;19;130513;-39
2024/01/22 04:05:31;;;;;;;197.82;8.07;;;;;;;19.32;52.00;99488.50;7294097;19;131513;-42
2024/01/22 04:07:57;;;;;;;243.05;10.15;;;;;;;19.53;52.01;99527.63;7296643;19;130140;-40
2024/01/22 04:10:23;;;;;;;178.27;7.27;;;;;;;19.51;51.97;99529.53;7293913;19;129726;-44
2024/01/22 04:12:48;;;;;;;184.38;7.57;;;;;;;19.58;51.39;99537.66;7294039;19;133212;-41
2024/01/22 04:15:14;;;;;;;172.18;7.70;;;;;;;19.57;51.71;99559.50;7294572;19;130689;-40
2024/01/22 04:17:39;;;;;;;196.48;7.72;;;;;;;19.62;51.33;99557.31;7294296;19;132814;-41
2024/01/22 04:20:06;;;;;;;197.10;8.57;;;;;;;19.65;51.99;99549.25;7292394;19;129762;-44
2024/01/22 04:22:32;;;;;;;201.73;8.38;;;;;;;19.66;51.44;99543.91;7294103;19;129460;-40
2024/01/22 04:24:57;;;;;;;214.52;8.93;;;;;;;19.64;51.71;99539.75;7295971;19;130086;-39
2024/01/22 04:27:22;;;;;;;186.80;7.63;;;;;;;19.77;51.56;99530.75;7297322;19;131787;-40
2024/01/22 04:29:48;;;;;;;165.15;6.93;;;;;;;19.81;51.47;99528.72;7293949;19;130441;-42
2024/01/22 04:32:13;;;;;;;197.82;8.25;;;;;;;19.86;51.26;99508.28;7293702;19;129150;-40
2024/01/22 04:34:39;;;;;;;214.00;8.80;;;;;;;19.92;50.60;99498.16;7294626;19;130090;-42
2024/01/22 04:37:05;;;;;;;218.05;9.55;;;;;;;19.94;51.18;99498.03;7294679;19;130868;-40
2024/01/22 04:39:31;;;;;;;140.43;6.03;;;;;;;19.97;50.83;99487.31;7293665;19;129726;-45
2024/01/22 04:41:56;;;;;;;105.45;4.60;;;;;;;20.10;50.77;99480.09;7294718;19;129065;-40
2024/01/22 04:44:21;;;;;;;225.00;9.10;;;;;;;20.08;51.03;99484.63;7293915;19;130613;-38
2024/01/22 04:46:47;;;;;;;186.15;7.78;;;;;;;20.01;50.71;99476.50;7296805;19;130928;-42
2024/01/22 04:49:12;;;;;;;357.27;15.18;;;;;;;19.90;50.59;99473.19;7283162;19;131217;-38
2024/01/22 04:51:42;;;;;;;214.98;8.70;;;;;;;19.70;50.93;99468.81;7293939;19;129740;-45
2024/01/22 04:54:07;;;;;;;213.02;8.50;;;;;;;19.70;50.59;99476.66;7295263;19;129961;-41
2024/01/22 04:56:33;;;;;;;189.77;7.97;;;;;;;19.66;51.17;99472.63;7294454;19;133002;-42
2024/01/22 04:58:58;;;;;;;178.95;7.25;;;;;;;19.63;50.99;99470.31;7294543;19;131647;-39
2024/01/22 05:01:23;;;;;;;213.20;8.52;;;;;;;19.68;50.64;99479.41;7291523;19;129827;-41
2024/01/22 05:03:49;;;;;;;272.85;10.93;;;;;;;19.74;50.63;99467.59;7289915;19;129027;-40
2024/01/22 05:06:14;;;;;;;150.25;6.22;;;;;;;19.61;50.59;99446.97;7290853;19;129617;-43
2024/01/22 05:08:40;;;;;;;176.07;7.00;;;;;;;19.86;50.17;99482.22;7292494;19;130309;-43
2024/01/22 05:11:07;;;;;;;191.53;7.73;;;;;;;20.31;49.40;99470.44;7292755;19;129462;-38
2024/01/22 05:13:32;;;;;;;259.38;10.23;;;;;;;20.57;48.71;99476.81;7289668;19;129939;-39
2024/01/22 05:15:57;;;;;;;212.40;8.85;;;;;;;20.68;48.94;99476.66;7293142;19;133428;-40
2024/01/22 05:18:22;;;;;;;170.40;7.30;;;;;;;20.77;48.41;99478.47;7292726;19;130247;-40
2024/01/22 05:20:48;;;;;;;194.15;7.90;;;;;;;20.77;48.43;99474.03;7290805;19;130168;-40
2024/01/22 05:23:14;;;;;;;181.00;7.30;;;;;;;20.63;48.58;99468.41;7291275;19;129842;-40
2024/01/22 05:25:39;;;;;;;175.65;7.32;;;;;;;20.59;48.75;99461.81;7292845;19;130255;-43
2024/01/22 05:28:05;;;;;;;137.88;5.80;;;;;;;20.45;49.48;99449.97;7287874;19;129433;-43
2024/01/22 05:30:31;;;;;;;204.37;8.23;;;;;;;20.35;49.71;99441.31;7288248;19;129102;-40
2024/01/22 05:32:56;;;;;;;196.63;8.10;;;;;;;20.34;49.64;99439.66;7286337;19;129878;-38
2024/01/22 05:35:21;;;;;;;236.50;9.68;;;;;;;20.23;49.98;99438.97;7288930;19;130104;-41
2024/01/22 05:37:49;;;;;;;263.17;11.15;;;;;;;20.15;50.59;99426.56;7289696;19;129913;-42
2024/01/22 05:40:14;;;;;;;209.13;8.23;;;;;;;20.09;50.20;99421.88;7288472;19;129759;-39
2024/01/22 05:42:40;;;;;;;214.77;9.07;;;;;;;20.01;51.22;99413.06;7292586;19;129186;-41
2024/01/22 05:45:06;;;;;;;200.88;8.35;;;;;;;19.92;50.61;99408.63;7292644;19;130228;-42
2024/01/22 05:47:31;;;;;;;194.57;7.87;;;;;;;19.76;50.85;99408.31;7290289;19;130528;-42
2024/01/22 05:49:56;;;;;;;270.30;10.57;;;;;;;19.68;51.23;99400.31;7288173;19;129489;-38
2024/01/22 05:52:22;;;;;;;210.05;8.90;;;;;;;19.67;51.16;99388.25;7291154;19;130007;-40
2024/01/22 05:54:47;;;;;;;168.65;7.10;;;;;;;19.65;51.46;99383.13;7290278;19;130279;-44
2024/01/22 05:57:13;;;;;;;177.32;7.30;;;;;;;19.50;51.59;99342.75;7291443;19;130185;-43
2024/01/22 05:59:39;;;;;;;213.18;8.60;;;;;;;19.69;51.35;99381.09;7288667;19;129875;-40
2024/01/22 06:02:05;;;;;;;89.27;4.10;;;;;;;19.71;50.87;99373.97;7293321;19;130092;-37
2024/01/22 06:04:31;;;;;;;202.50;8.33;;;;;;;19.69;51.42;99373.28;7289911;19;131735;-40
2024/01/22 06:06:56;;;;;;;192.18;7.93;;;;;;;19.71;50.51;99369.59;7287435;19;131543;-41
2024/01/22 06:09:22;;;;;;;303.33;13.00;;;;;;;19.73;51.03;99369.44;7285951;19;129777;-41
2024/01/22 06:11:47;;;;;;;148.55;6.25;;;;;;;19.66;51.30;99363.09;7293033;19;129772;-40
2024/01/22 06:14:12;;;;;;;228.75;9.88;;;;;;;19.66;51.11;99363.09;7289633;19;130045;-39
2024/01/22 06:16:37;;;;;;;159.65;6.60;;;;;;;19.66;51.16;99363.09;7288727;19;130983;-43
2024/01/22 06:19:03;;;;;;;236.13;9.55;;;;;;;19.60;51.50;99355.81;7290069;19;129627;-43
2024/01/22 06:21:28;;;;;;;182.48;7.63;;;;;;;19.59;52.07;99359.38;7289041;19;132755;-39
2024/01/22 06:23:53;;;;;;;194.90;7.97;;;;;;;19.58;51.54;99347.31;7289680;19;131105;-41
2024/01/22 06:26:19;;;;;;;237.18;9.52;;;;;;;19.52;52.08;99332.19;7290612;19;130012;-37
2024/01/22 06:28:47;;;;;;;194.43;7.67;;;;;;;19.53;52.09;99329.47;7290516;19;130928;-43
2024/01/22 06:31:13;;;;;;;189.10;8.07;;;;;;;19.53;52.43;99323.41;7290098;19;130236;-38
2024/01/22 06:33:38;;;;;;;210.43;8.80;;;;;;;19.54;52.33;99327.66;7290993;19;131111;-40
2024/01/22 06:36:04;;;;;;;246.55;10.55;;;;;;;19.56;52.06;99307.50;7289752;19;133780;-38
2024/01/22 06:38:29;;;;;;;127.38;5.57;;;;;;;19.59;52.36;99296.78;7290175;19;129044;-41
2024/01/22 06:40:54;;;;;;;234.52;9.15;;;;;;;19.63;51.49;99277.31;7288016;19;129129;-39
2024/01/22 06:43:20;;;;;;;218.73;9.07;;;;;;;19.63;52.16;99256.47;7295266;19;130477;-37
2024/01/22 06:45:45;;;;;;;197.48;7.95;;;;;;;19.56;51.67;99255.34;7298698;19;132444;-38
2024/01/22 06:48:11;;;;;;;245.25;9.85;;;;;;;19.45;51.89;99285.78;7295757;19;130437;-45
2024/01/22 06:50:37;;;;;;;160.32;6.32;;;;;;;19.45;51.63;99288.38;7291138;19;129534;-38
2024/01/22 06:53:03;;;;;;;114.18;4.85;;;;;;;19.45;51.91;99295.41;7291037;19;131094;-41
2024/01/22 06:55:29;;;;;;;289.75;11.18;;;;;;;19.47;51.79;99313.53;7293779;19;130420;-42
2024/01/22 06:57:54;;;;;;;214.85;8.90;;;;;;;19.50;51.43;99313.25;7297920;19;130936;-39
2024/01/22 07:00:20;;;;;;;178.77;8.07;;;;;;;19.50;51.59;99293.22;7293335;19;129268;-38
2024/01/22 07:02:48;;;;;;;227.70;9.13;;;;;;;19.54;51.47;99298.97;7295478;19;131210;-38
2024/01/22 07:05:14;;;;;;;204.10;8.15;;;;;;;19.53;51.19;99294.72;7298686;19;131835;-41
2024/01/22 07:07:39;;;;;;;192.45;7.95;;;;;;;19.54;51.11;99267.69;7297029;19;129664;-39
2024/01/22 07:10:07;;;;;;;195.98;7.75;;;;;;;19.54;50.74;99228.56;7293935;19;129674;-42
2024/01/22 07:12:33;;;;;;;178.65;7.25;;;;;;;19.78;50.53;99234.25;7296144;19;130103;-44
2024/01/22 07:14:58;;;;;;;260.17;10.50;;;;;;;19.88;50.33;99253.34;7297151;19;129988;-39
2024/01/22 07:17:25;;;;;;;212.55;9.20;;;;;;;19.91;50.44;99260.88;7296293;19;128959;-43
2024/01/22 07:19:51;;;;;;;170.68;7.25;;;;;;;19.89;50.90;99263.63;7294760;19;129559;-41
2024/01/22 07:22:17;;;;;;;199.82;8.35;;;;;;;19.76;50.83;99230.94;7297552;19;130522;-37
2024/01/22 07:24:42;;;;;;;256.07;10.13;;;;;;;19.90;50.79;99247.00;7295635;19;130495;-38
2024/01/22 07:27:08;;;;;;;158.23;6.55;;;;;;;19.85;51.24;99251.00;7298487;19;129607;-42
2024/01/22 07:29:36;;;;;;;210.35;8.15;;;;;;;19.84;51.34;99249.34;7293942;19;130006;-44
2024/01/22 07:32:02;;;;;;;230.57;8.98;;;;;;;19.86;51.15;99247.41;7295600;19;129991;-44
2024/01/22 07:34:27;;;;;;;151.80;6.05;;;;;;;19.83;51.00;99239.88;7296301;19;132666;-42
2024/01/22 07:36:53;;;;;;;179.93;7.25;;;;;;;19.88;51.51;99233.31;7297819;19;130014;-38
2024/01/22 07:39:19;;;;;;;255.52;10.27;;;;;;;19.87;51.31;99209.94;7292346;19;129306;-43
2024/01/22 07:41:44;;;;;;;194.33;7.77;;;;;;;19.84;51.27;99197.16;7293399;19;130284;-43
2024/01/22 07:44:10;;;;;;;156.00;6.18;;;;;;;19.86;50.89;99195.25;7293846;19;129202;-43
2024/01/22 07:46:35;;;;;;;178.55;7.32;;;;;;;19.73;51.68;99177.28;7293632;19;130898;-39
2024/01/22 07:49:00;;;;;;;206.90;8.30;;;;;;;19.60;51.50;99186.34;7295183;19;134340;-37
2024/01/22 07:51:26;;;;;;;248.68;10.00;;;;;;;19.56;51.68;99192.78;7295608;19;129540;-40
2024/01/22 07:53:52;;;;;;;145.55;6.20;;;;;;;19.56;51.02;99213.63;7294425;19;130342;-44
2024/01/22 07:56:17;;;;;;;167.07;7.07;;;;;;;19.52;51.73;99212.28;7296000;19;130987;-40
2024/01/22 07:58:43;;;;;;;186.85;7.32;;;;;;;19.51;51.13;99219.25;7294563;19;129375;-38
2024/01/22 08:01:08;;;;;;;287.13;11.57;;;;;;;19.53;51.40;99214.75;7291593;19;130304;-38
2024/01/22 08:03:34;;;;;;;180.23;7.57;;;;;;;19.53;50.93;99203.47;7296461;19;130030;-39
2024/01/22 08:06:00;;;;;;;168.83;6.70;;;;;;;19.55;51.15;99184.16;7294614;19;129878;-40
2024/01/22 08:08:26;;;;;;;227.32;8.95;;;;;;;19.56;50.80;99198.00;7293653;19;129646;-39
2024/01/22 08:10:52;;;;;;;274.00;11.07;;;;;;;19.64;51.28;99201.56;7292744;19;130803;-39
2024/01/22 08:13:17;;;;;;;183.13;7.22;;;;;;;19.63;51.08;99186.06;7296475;19;129980;-39
2024/01/22 08:15:43;;;;;;;196.82;7.93;;;;;;;19.84;50.93;99213.66;7294700;19;129159;-42
2024/01/22 08:18:09;;;;;;;179.85;7.05;;;;;;;19.71;50.93;99214.88;7294476;19;129325;-41
2024/01/22 08:20:34;;;;;;;250.73;9.82;;;;;;;19.86;51.11;99223.94;7293025;19;129526;-38
2024/01/22 08:23:00;;;;;;;157.80;6.32;;;;;;;19.84;51.27;99234.53;7297009;19;132046;-39
2024/01/22 08:25:28;;;;;;;211.35;8.93;;;;;;;19.85;51.03;99249.19;7292974;19;129351;-42
2024/01/22 08:27:56;;;;;;;210.38;8.38;;;;;;;19.63;51.35;99209.53;7294099;19;131321;-37
2024/01/22 08:30:22;;;;;;;289.45;11.93;;;;;;;19.76;51.79;99236.16;7291674;19;129642;-41
2024/01/22 08:32:48;;;;;;;187.60;7.63;;;;;;;19.78;51.53;99236.84;7293594;19;130430;-39
2024/01/22 08:35:16;;;;;;;170.70;7.00;;;;;;;19.79;51.50;99241.09;7293433;19;129121;-42
2024/01/22 08:37:45;;;;;;;221.38;8.93;;;;;;;19.69;51.48;99235.06;7287197;19;129887;-39
2024/01/22 08:40:11;;;;;;;239.55;9.13;;;;;;;19.67;51.49;99242.22;7291609;19;130968;-39
2024/01/22 08:42:36;;;;;;;254.65;10.45;;;;;;;19.68;52.18;99226.41;7291852;19;129711;-39
2024/01/22 08:45:02;;;;;;;161.77;6.65;;;;;;;19.69;51.84;99230.66;7292537;19;130736;-41
2024/01/22 08:47:27;;;;;;;197.88;7.93;;;;;;;19.58;52.43;99248.22;7289275;19;129579;-41
2024/01/22 08:49:53;;;;;;;153.80;6.07;;;;;;;19.37;51.39;99217.84;7293090;19;130039;-41
2024/01/22 08:52:18;;;;;;;210.45;8.55;;;;;;;19.51;51.54;99254.94;7295509;19;130337;-37
2024/01/22 08:54:43;;;;;;;178.65;7.00;;;;;;;19.37;51.61;99214.41;7293783;19;129137;-38
2024/01/22 08:57:08;;;;;;;186.63;7.55;;;;;;;19.48;51.65;99254.22;7292429;19;129116;-40
2024/01/22 08:59:34;;;;;;;239.23;9.43;;;;;;;19.49;51.37;99239.41;7294024;19;135647;-41
2024/01/22 09:01:59;;;;;;;179.07;7.30;;;;;;;19.51;51.41;99241.88;7295378;19;131651;-38
2024/01/22 09:04:25;;;;;;;204.70;8.40;;;;;;;19.50;51.77;99248.06;7293490;19;129606;-38
2024/01/22 09:06:51;;;;;;;227.68;8.68;;;;;;;19.48;51.49;99233.38;7292303;19;129682;-39
2024/01/22 09:09:17;;;;;;;206.87;8.10;;;;;;;19.48;51.22;99246.41;7292924;19;130316;-44
2024/01/22 09:11:42;;;;;;;175.43;7.18;;;;;;;19.39;51.41;99208.13;7294113;19;130339;-41
2024/01/22 09:14:07;;;;;;;171.05;6.85;;;;;;;19.72;51.03;99247.84;7292599;19;129775;-45
2024/01/22 09:16:33;;;;;;;257.15;10.55;;;;;;;19.77;50.80;99253.44;7292407;19;129368;-37
2024/01/22 09:18:58;;;;;;;169.43;6.93;;;;;;;19.79;50.57;99251.53;7292748;19;130150;-43
2024/01/22 09:21:24;;;;;;;168.65;6.72;;;;;;;19.75;50.67;99244.97;7290706;19;130333;-42
2024/01/22 09:23:50;;;;;;;198.52;7.88;;;;;;;19.73;50.82;99245.09;7293903;19;130479;-38
2024/01/22 09:26:15;;;;;;;277.08;11.52;;;;;;;19.54;51.54;99216.38;7295032;19;131918;-38
2024/01/22 09:28:40;;;;;;;189.23;7.50;;;;;;;19.74;51.33;99243.28;7293735;19;130122;-44
2024/01/22 09:31:06;;;;;;;92.25;3.90;;;;;;;19.70;51.90;99240.13;7294709;19;130563;-43
2024/01/22 09:33:31;;;;;;;184.73;7.82;;;;;;;19.66;51.25;99232.72;7292835;19;129763;-39
2024/01/22 09:35:57;;;;;;;226.43;8.93;;;;;;;19.63;51.77;99225.16;7293532;19;129991;-39
2024/01/22 09:38:22;;;;;;;109.13;4.50;;;;;;;19.64;51.43;99221.59;7292856;19;129160;-38
2024/01/22 09:40:50;;;;;;;156.65;6.32;;;;;;;19.49;51.63;99213.34;7290612;19;130280;-40
2024/01/22 09:43:16;;;;;;;198.23;7.97;;;;;;;19.67;51.52;99231.78;7292417;19;129571;-38
2024/01/22 09:45:42;;;;;;;189.57;7.70;;;;;;;19.63;51.70;99240.81;7292293;19;129120;-39
2024/01/22 09:48:08;;;;;;;163.82;6.40;;;;;;;19.53;51.93;99224.34;7293100;19;130208;-42
2024/01/22 09:50:33;;;;;;;193.13;8.07;;;;;;;19.53;52.24;99229.56;7290716;19;130321;-39
2024/01/22 09:53:10;;;;;;;229.68;8.90;;;;;;;19.53;52.12;99214.75;7292879;19;129505;-38
2024/01/22 09:55:40;;;;;;;259.85;10.32;;;;;;;19.52;51.50;99220.09;7292097;19;129830;-41
2024/01/22 09:58:09;;;;;;;176.15;6.93;;;;;;;19.49;50.91;99208.13;7293849;19;130238;-39
2024/01/22 10:00:37;;;;;;;276.15;11.38;;;;;;;19.53;51.00;99206.09;7289218;19;130834;-37
2024/01/22 10:03:03;;;;;;;185.10;7.50;;;;;;;19.48;51.44;99196.88;7292267;19;129429;-42
2024/01/22 10:05:29;;;;;;;223.83;8.83;;;;;;;19.52;51.00;99201.84;7292046;19;130148;-37
2024/01/22 10:07:54;;;;;;;259.83;10.48;;;;;;;19.48;51.68;99186.44;7291887;19;129930;-37
2024/01/22 10:10:21;;;;;;;186.02;7.35;;;;;;;19.54;51.11;99200.72;7290886;19;130346;-42
2024/01/22 10:12:57;;;;;;;210.70;8.35;;;;;;;19.69;51.10;99201.16;7293559;19;132898;-42
2024/01/22 10:15:23;;;;;;;190.05;7.35;;;;;;;19.67;51.43;99193.47;7290390;19;132076;-39
2024/01/22 10:17:49;;;;;;;214.55;8.52;;;;;;;19.70;50.81;99184.56;7297427;19;130248;-39
2024/01/22 10:20:15;;;;;;;137.23;5.75;;;;;;;19.70;50.86;99174.94;7298185;19;130389;-44
2024/01/22 10:22:40;;;;;;;253.32;10.40;;;;;;;19.67;51.05;99169.19;7296341;19;130200;-40
2024/01/22 10:25:06;;;;;;;219.80;8.63;;;;;;;19.63;51.61;99157.38;7300036;19;130953;-40
2024/01/22 10:27:32;;;;;;;232.07;9.45;;;;;;;19.62;51.55;99145.31;7294559;19;130027;-38
2024/01/22 10:30:09;;;;;;;198.32;7.85;;;;;;;19.60;51.47;99150.66;7297880;19;132948;-41
2024/01/22 10:32:35;;;;;;;173.57;6.88;;;;;;;19.60;51.49;99137.63;7299100;19;128981;-41
2024/01/22 10:35:01;;;;;;;192.25;7.60;;;;;;;19.61;51.58;99133.22;7299704;19;130997;-38
2024/01/22 10:37:27;;;;;;;229.30;8.98;;;;;;;19.63;51.54;99126.09;7297556;19;129623;-38
2024/01/22 10:40:03;;;;;;;102.03;4.20;;;;;;;19.58;51.80;99112.63;7298436;19;129458;-41
2024/01/22 10:42:29;;;;;;;132.70;5.28;;;;;;;19.57;52.30;99111.00;7300151;19;130039;-44
2024/01/22 10:44:56;;;;;;;180.45;7.45;;;;;;;19.55;51.81;99097.28;7298970;19;129644;-42
2024/01/22 10:47:22;;;;;;;222.23;8.75;;;;;;;19.50;52.02;99109.91;7297239;19;130173;-36
2024/01/22 10:49:47;;;;;;;184.93;7.38;;;;;;;19.48;51.45;99111.81;7298094;19;131884;-41
2024/01/22 10:52:13;;;;;;;169.25;6.53;;;;;;;19.48;51.24;99108.25;7300621;19;130149;-42
2024/01/22 10:54:39;;;;;;;191.52;8.15;;;;;;;19.48;52.08;99100.41;7298272;19;129318;-36
2024/01/22 10:57:18;;;;;;;285.87;11.03;;;;;;;19.49;51.65;99106.47;7298052;19;131372;-37
2024/01/22 10:59:50;;;;;;;208.63;8.57;;;;;;;19.44;51.41;99106.88;7296499;19;129737;-43
2024/01/22 11:02:21;;;;;;;192.48;7.55;;;;;;;19.48;51.33;99101.38;7297038;19;129616;-39
2024/01/22 11:04:47;;;;;;;236.73;9.52;;;;;;;19.48;51.56;99105.63;7297633;19;130978;-39